Time;durP1;ratioP1;P1;durP2;ratioP2;P2;SDS_P1;SDS_P2;PMS_P1;PMS_P2;Temp;Humidity;BMP_temperature;BMP_pressure;BME280_temperature;BME280_humidity;BME280_pressure;Samples;Min_cycle;Max_cycle;Signal;HPM_P1;HPM_P2
2022/10/31 00:00:49;;;;;;;0.80;0.80;;;;;;;;;;5051109;28;20477;-76
2022/10/31 00:03:16;;;;;;;0.70;0.70;;;;;;;;;;5087460;28;20432;-79
2022/10/31 00:05:45;;;;;;;0.70;0.70;;;;;;;;;;5063124;28;20466;-77
2022/10/31 00:08:11;;;;;;;0.70;0.70;;;;;;;;;;5068434;28;20425;-76
2022/10/31 00:10:38;;;;;;;1.40;0.90;;;;;;;;;;5073523;28;20426;-76
2022/10/31 00:13:05;;;;;;;0.70;0.70;;;;;;;;;;5048206;28;20448;-76
2022/10/31 00:15:32;;;;;;;0.83;0.83;;;;;;;;;;5059466;28;20553;-76
2022/10/31 00:18:02;;;;;;;0.70;0.70;;;;;;;;;;5053334;28;20462;-77
2022/10/31 00:20:29;;;;;;;0.70;0.70;;;;;;;;;;5050296;28;20483;-78
2022/10/31 00:22:57;;;;;;;0.77;0.77;;;;;;;;;;5063900;28;20542;-78
2022/10/31 00:25:24;;;;;;;0.70;0.70;;;;;;;;;;5086849;28;20435;-77
2022/10/31 00:27:52;;;;;;;0.70;0.70;;;;;;;;;;5084452;28;20427;-77
2022/10/31 00:30:19;;;;;;;0.90;0.90;;;;;;;;;;5042985;28;20450;-77
2022/10/31 00:32:47;;;;;;;0.80;0.80;;;;;;;;;;5055830;28;20491;-77
2022/10/31 00:35:15;;;;;;;1.97;1.87;;;;;;;;;;5064325;28;20446;-77
2022/10/31 00:37:44;;;;;;;0.70;0.70;;;;;;;;;;5067086;28;20437;-77
2022/10/31 00:40:11;;;;;;;0.80;0.80;;;;;;;;;;5063710;28;20484;-76
2022/10/31 00:42:38;;;;;;;0.70;0.70;;;;;;;;;;5055629;28;20801;-77
2022/10/31 00:45:06;;;;;;;0.70;0.70;;;;;;;;;;5057899;28;20483;-77
2022/10/31 00:47:32;;;;;;;0.70;0.60;;;;;;;;;;5045131;28;20874;-77
2022/10/31 00:50:00;;;;;;;0.70;0.70;;;;;;;;;;5056605;28;20971;-77
2022/10/31 00:52:32;;;;;;;0.70;0.60;;;;;;;;;;5070206;28;20983;-77
2022/10/31 00:55:00;;;;;;;0.70;0.70;;;;;;;;;;5048216;28;20781;-77
2022/10/31 00:57:26;;;;;;;0.67;0.60;;;;;;;;;;5041249;28;20449;-78
2022/10/31 00:59:53;;;;;;;2.93;2.00;;;;;;;;;;5062630;28;20470;-77
2022/10/31 01:02:20;;;;;;;0.80;0.80;;;;;;;;;;5064056;28;20461;-78
2022/10/31 01:04:48;;;;;;;0.70;0.70;;;;;;;;;;5043766;28;20493;-76
2022/10/31 01:07:15;;;;;;;0.60;0.60;;;;;;;;;;5073354;28;20549;-74
2022/10/31 01:09:45;;;;;;;0.70;0.70;;;;;;;;;;5063576;28;20537;-73
2022/10/31 01:12:12;;;;;;;0.70;0.70;;;;;;;;;;5042368;28;20451;-76
2022/10/31 01:14:42;;;;;;;1.70;1.37;;;;;;;;;;5037555;28;20446;-75
2022/10/31 01:17:09;;;;;;;0.70;0.70;;;;;;;;;;5062950;28;20958;-75
2022/10/31 01:19:35;;;;;;;1.23;1.13;;;;;;;;;;5057533;28;20441;-74
2022/10/31 01:22:02;;;;;;;0.70;0.70;;;;;;;;;;5060195;28;20489;-77
2022/10/31 01:24:28;;;;;;;0.70;0.70;;;;;;;;;;5062194;28;20558;-75
2022/10/31 01:26:57;;;;;;;1.17;1.07;;;;;;;;;;5037908;28;20439;-74
2022/10/31 01:29:23;;;;;;;0.60;0.60;;;;;;;;;;5064147;28;20442;-74
2022/10/31 01:31:50;;;;;;;0.70;0.70;;;;;;;;;;5065286;28;20484;-75
2022/10/31 01:34:18;;;;;;;0.83;0.83;;;;;;;;;;5040599;28;20455;-76
2022/10/31 01:36:47;;;;;;;0.90;0.87;;;;;;;;;;5049586;28;20492;-77
2022/10/31 01:39:15;;;;;;;1.83;1.63;;;;;;;;;;5037440;28;21055;-76
2022/10/31 01:41:42;;;;;;;1.33;1.23;;;;;;;;;;5046722;28;20459;-74
2022/10/31 01:44:28;;;;;;;1.47;1.37;;;;;;;;;;5059791;28;20477;-77
2022/10/31 01:46:58;;;;;;;0.83;0.83;;;;;;;;;;5078442;28;20513;-79
2022/10/31 01:49:30;;;;;;;0.70;0.70;;;;;;;;;;5086476;28;20926;-76
2022/10/31 01:52:01;;;;;;;0.80;0.80;;;;;;;;;;5061317;28;20537;-76
2022/10/31 01:54:30;;;;;;;0.63;0.63;;;;;;;;;;5049381;28;20515;-76
2022/10/31 01:56:57;;;;;;;0.70;0.60;;;;;;;;;;5067535;28;20436;-76
2022/10/31 01:59:26;;;;;;;0.60;0.60;;;;;;;;;;5059675;28;20454;-76
2022/10/31 02:01:53;;;;;;;0.70;0.70;;;;;;;;;;5064368;28;21007;-76
2022/10/31 02:04:23;;;;;;;0.87;0.87;;;;;;;;;;5062003;28;20446;-74
2022/10/31 02:06:53;;;;;;;0.70;0.60;;;;;;;;;;5064899;28;20502;-76
2022/10/31 02:09:23;;;;;;;0.67;0.63;;;;;;;;;;5050644;28;20453;-78
2022/10/31 02:11:52;;;;;;;0.70;0.70;;;;;;;;;;5057740;28;21002;-74
2022/10/31 02:14:28;;;;;;;0.70;0.70;;;;;;;;;;5040870;28;20453;-77
2022/10/31 02:16:58;;;;;;;5.13;2.27;;;;;;;;;;5045329;28;20819;-77
2022/10/31 02:19:34;;;;;;;0.70;0.70;;;;;;;;;;5064126;28;21011;-77
2022/10/31 02:22:09;;;;;;;0.97;0.97;;;;;;;;;;5053776;28;20478;-77
2022/10/31 02:24:52;;;;;;;1.07;0.80;;;;;;;;;;5062000;28;20481;-75
2022/10/31 02:27:37;;;;;;;1.07;0.97;;;;;;;;;;5041426;28;20456;-78
2022/10/31 02:30:15;;;;;;;0.70;0.60;;;;;;;;;;5050785;28;20511;-77
2022/10/31 02:33:02;;;;;;;0.70;0.70;;;;;;;;;;5040338;28;20594;-78
2022/10/31 02:35:40;;;;;;;0.60;0.60;;;;;;;;;;5029487;28;20507;-77
2022/10/31 02:38:14;;;;;;;0.70;0.60;;;;;;;;;;5056148;28;20459;-75
2022/10/31 02:40:49;;;;;;;0.80;0.80;;;;;;;;;;5061469;28;20519;-75
2022/10/31 02:43:31;;;;;;;0.90;0.90;;;;;;;;;;5057989;28;20831;-75
2022/10/31 02:46:10;;;;;;;1.30;1.20;;;;;;;;;;5048880;28;20468;-74
2022/10/31 02:48:42;;;;;;;0.70;0.60;;;;;;;;;;5061339;28;20520;-75
2022/10/31 02:51:13;;;;;;;0.70;0.70;;;;;;;;;;5060126;28;20486;-77
2022/10/31 02:53:43;;;;;;;0.70;0.60;;;;;;;;;;5066146;28;20545;-76
2022/10/31 02:56:14;;;;;;;1.37;1.00;;;;;;;;;;5061669;28;20456;-76
2022/10/31 02:58:47;;;;;;;0.80;0.80;;;;;;;;;;5039662;28;20458;-75
2022/10/31 03:01:32;;;;;;;0.70;0.70;;;;;;;;;;5056755;28;20471;-77
2022/10/31 03:04:15;;;;;;;0.60;0.60;;;;;;;;;;5043825;28;20455;-76
2022/10/31 03:06:50;;;;;;;0.70;0.70;;;;;;;;;;5044707;28;20472;-78
2022/10/31 03:09:23;;;;;;;0.90;0.90;;;;;;;;;;5075507;28;20462;-76
2022/10/31 03:11:58;;;;;;;0.60;0.60;;;;;;;;;;5073832;28;20457;-77
2022/10/31 03:14:39;;;;;;;0.63;0.63;;;;;;;;;;5048889;28;20452;-76
2022/10/31 03:17:14;;;;;;;4.10;1.27;;;;;;;;;;5059808;28;20448;-77
2022/10/31 03:19:46;;;;;;;0.60;0.60;;;;;;;;;;5063221;28;20447;-77
2022/10/31 03:22:21;;;;;;;0.60;0.60;;;;;;;;;;5054670;28;20465;-77
2022/10/31 03:24:53;;;;;;;0.63;0.60;;;;;;;;;;5064950;28;20443;-75
2022/10/31 03:27:32;;;;;;;0.80;0.80;;;;;;;;;;5057953;28;20508;-76
2022/10/31 03:30:04;;;;;;;0.60;0.60;;;;;;;;;;5063220;28;20453;-76
2022/10/31 03:32:52;;;;;;;0.60;0.60;;;;;;;;;;5068835;28;20450;-75
2022/10/31 03:35:25;;;;;;;1.33;1.23;;;;;;;;;;5054715;28;20847;-75
2022/10/31 03:38:00;;;;;;;0.60;0.60;;;;;;;;;;5066926;28;20515;-77
2022/10/31 03:40:37;;;;;;;0.60;0.60;;;;;;;;;;5056094;28;20454;-77
2022/10/31 03:43:10;;;;;;;0.70;0.70;;;;;;;;;;5067606;28;20461;-78
2022/10/31 03:45:42;;;;;;;0.70;0.70;;;;;;;;;;5070367;28;20814;-78
2022/10/31 03:48:14;;;;;;;5.23;1.53;;;;;;;;;;5046827;28;20494;-77
2022/10/31 03:50:48;;;;;;;0.60;0.60;;;;;;;;;;5041369;28;20484;-76
2022/10/31 03:53:22;;;;;;;0.70;0.70;;;;;;;;;;5069394;28;20471;-77
2022/10/31 03:55:51;;;;;;;0.70;0.70;;;;;;;;;;5061707;28;20871;-77
2022/10/31 03:58:20;;;;;;;0.60;0.60;;;;;;;;;;5054490;28;20558;-76
2022/10/31 04:01:06;;;;;;;0.77;0.77;;;;;;;;;;5073310;28;20542;-74
2022/10/31 04:03:36;;;;;;;0.63;0.63;;;;;;;;;;5083017;28;21026;-76
2022/10/31 04:06:06;;;;;;;0.70;0.70;;;;;;;;;;5041055;28;20484;-74
2022/10/31 04:08:37;;;;;;;2.60;1.70;;;;;;;;;;5066879;28;20454;-77
2022/10/31 04:11:05;;;;;;;1.17;0.87;;;;;;;;;;5048408;28;20775;-77
2022/10/31 04:13:39;;;;;;;0.70;0.60;;;;;;;;;;5069009;28;20468;-78
2022/10/31 04:16:13;;;;;;;1.97;1.10;;;;;;;;;;5078348;28;20454;-78
2022/10/31 04:18:43;;;;;;;0.60;0.60;;;;;;;;;;5077629;28;20484;-77
2022/10/31 04:21:10;;;;;;;0.67;0.63;;;;;;;;;;5041035;28;20515;-76
2022/10/31 04:23:38;;;;;;;0.60;0.60;;;;;;;;;;5064951;28;20811;-76
2022/10/31 04:26:18;;;;;;;0.60;0.60;;;;;;;;;;5043783;28;20808;-77
2022/10/31 04:28:45;;;;;;;1.53;0.97;;;;;;;;;;5077757;28;20479;-77
2022/10/31 04:31:12;;;;;;;0.70;0.70;;;;;;;;;;5066873;28;20491;-76
2022/10/31 04:33:41;;;;;;;1.70;1.10;;;;;;;;;;5053196;28;20798;-76
2022/10/31 04:36:07;;;;;;;0.60;0.60;;;;;;;;;;5077883;28;20452;-76
2022/10/31 04:38:35;;;;;;;0.60;0.60;;;;;;;;;;5048961;28;20460;-77
2022/10/31 04:41:09;;;;;;;0.60;0.60;;;;;;;;;;5060880;28;20487;-77
2022/10/31 04:43:49;;;;;;;4.60;3.10;;;;;;;;;;5060067;28;20477;-75
2022/10/31 04:46:16;;;;;;;0.60;0.60;;;;;;;;;;5060650;28;20455;-76
2022/10/31 04:48:42;;;;;;;0.60;0.60;;;;;;;;;;5042334;28;20465;-76
2022/10/31 04:51:10;;;;;;;0.60;0.60;;;;;;;;;;5056603;28;20491;-77
2022/10/31 04:53:37;;;;;;;1.20;1.10;;;;;;;;;;5061917;28;20796;-76
2022/10/31 04:56:24;;;;;;;1.80;1.70;;;;;;;;;;5066391;28;20971;-77
2022/10/31 04:58:56;;;;;;;0.60;0.60;;;;;;;;;;5079502;28;20519;-76
2022/10/31 05:01:24;;;;;;;0.70;0.70;;;;;;;;;;5062939;28;21017;-77
2022/10/31 05:03:53;;;;;;;2.30;1.67;;;;;;;;;;5060560;28;20475;-76
2022/10/31 05:06:20;;;;;;;0.80;0.80;;;;;;;;;;5063116;28;20459;-77
2022/10/31 05:08:48;;;;;;;0.80;0.80;;;;;;;;;;5061327;28;20473;-76
2022/10/31 05:11:15;;;;;;;0.80;0.77;;;;;;;;;;5059224;28;20529;-76
2022/10/31 05:13:44;;;;;;;0.60;0.60;;;;;;;;;;5055611;28;20507;-76
2022/10/31 05:16:11;;;;;;;0.60;0.60;;;;;;;;;;5061735;28;20436;-78
2022/10/31 05:18:56;;;;;;;0.63;0.60;;;;;;;;;;5059919;28;20417;-77
2022/10/31 05:21:52;;;;;;;0.67;0.67;;;;;;;;;;4999114;28;20476;-77
2022/10/31 05:24:21;;;;;;;1.03;0.93;;;;;;;;;;5045000;28;20983;-76
2022/10/31 05:26:49;;;;;;;0.70;0.70;;;;;;;;;;5064188;28;20455;-77
2022/10/31 05:29:17;;;;;;;1.73;1.43;;;;;;;;;;5062766;28;20826;-75
2022/10/31 05:31:44;;;;;;;0.60;0.60;;;;;;;;;;5065811;28;20448;-77
2022/10/31 05:34:29;;;;;;;0.60;0.60;;;;;;;;;;5064151;28;20440;-75
2022/10/31 05:37:33;;;;;;;0.70;0.70;;;;;;;;;;5061327;28;20820;-74
2022/10/31 05:40:01;;;;;;;0.70;0.70;;;;;;;;;;5057468;28;21013;-76
2022/10/31 05:42:34;;;;;;;0.60;0.60;;;;;;;;;;5049286;28;20468;-75
2022/10/31 05:45:02;;;;;;;0.60;0.60;;;;;;;;;;5050261;28;20436;-76
2022/10/31 05:47:42;;;;;;;0.60;0.60;;;;;;;;;;5057700;28;20458;-77
2022/10/31 05:50:33;;;;;;;0.60;0.60;;;;;;;;;;5074379;28;20494;-79
2022/10/31 05:53:09;;;;;;;0.70;0.67;;;;;;;;;;5046421;28;20484;-77
2022/10/31 05:55:37;;;;;;;1.40;1.30;;;;;;;;;;5059796;28;20790;-76
2022/10/31 05:58:14;;;;;;;0.70;0.70;;;;;;;;;;5053067;28;20473;-78
2022/10/31 06:00:50;;;;;;;1.63;1.53;;;;;;;;;;5062431;28;20519;-77
2022/10/31 06:03:17;;;;;;;0.60;0.60;;;;;;;;;;5058384;28;20475;-78
2022/10/31 06:05:47;;;;;;;0.60;0.60;;;;;;;;;;5056062;28;20464;-78
2022/10/31 06:08:23;;;;;;;0.70;0.60;;;;;;;;;;5079634;28;20429;-78
2022/10/31 06:10:52;;;;;;;0.70;0.70;;;;;;;;;;5054860;28;20555;-76
2022/10/31 06:13:30;;;;;;;0.70;0.70;;;;;;;;;;5055549;28;20573;-78
2022/10/31 06:16:12;;;;;;;0.60;0.60;;;;;;;;;;5057467;28;20447;-78
2022/10/31 06:18:40;;;;;;;0.60;0.53;;;;;;;;;;5048977;28;20450;-77
2022/10/31 06:21:07;;;;;;;0.60;0.60;;;;;;;;;;5053613;28;20566;-77
2022/10/31 06:23:35;;;;;;;0.60;0.60;;;;;;;;;;5065256;28;20467;-76
2022/10/31 06:26:24;;;;;;;0.60;0.60;;;;;;;;;;5064859;28;20446;-77
2022/10/31 06:28:52;;;;;;;1.00;1.00;;;;;;;;;;5037795;28;21156;-76
2022/10/31 06:31:42;;;;;;;0.60;0.60;;;;;;;;;;5048757;28;20446;-78
2022/10/31 06:34:10;;;;;;;0.70;0.70;;;;;;;;;;5058420;28;20492;-78
2022/10/31 06:36:36;;;;;;;1.77;1.67;;;;;;;;;;5057750;28;20947;-77
2022/10/31 06:39:03;;;;;;;0.60;0.60;;;;;;;;;;5063210;28;20486;-78
2022/10/31 06:41:30;;;;;;;0.70;0.70;;;;;;;;;;5063669;28;20605;-76
2022/10/31 06:43:58;;;;;;;1.00;1.00;;;;;;;;;;5062417;28;20548;-76
2022/10/31 06:46:52;;;;;;;0.60;0.60;;;;;;;;;;5066882;28;20896;-75
2022/10/31 06:49:41;;;;;;;0.60;0.60;;;;;;;;;;5053826;28;20547;-77
2022/10/31 06:52:12;;;;;;;1.33;1.23;;;;;;;;;;5066822;28;20514;-76
2022/10/31 06:54:40;;;;;;;0.70;0.70;;;;;;;;;;5068673;28;20498;-76
2022/10/31 06:57:07;;;;;;;1.20;1.10;;;;;;;;;;5072235;28;20779;-76
2022/10/31 06:59:36;;;;;;;0.63;0.63;;;;;;;;;;5061948;28;20455;-76
2022/10/31 07:02:35;;;;;;;0.60;0.60;;;;;;;;;;5062574;28;20542;-77
2022/10/31 07:05:05;;;;;;;0.70;0.70;;;;;;;;;;5077699;28;20438;-76
2022/10/31 07:07:32;;;;;;;0.60;0.60;;;;;;;;;;5066041;28;20449;-77
2022/10/31 07:09:59;;;;;;;0.80;0.80;;;;;;;;;;5062285;28;20869;-75
2022/10/31 07:12:48;;;;;;;0.60;0.60;;;;;;;;;;5049157;28;20450;-78
2022/10/31 07:15:15;;;;;;;0.73;0.73;;;;;;;;;;5067654;28;20442;-79
2022/10/31 07:17:44;;;;;;;0.80;0.80;;;;;;;;;;5068720;28;20545;-79
2022/10/31 07:20:10;;;;;;;8.90;1.97;;;;;;;;;;5065330;28;20479;-78
2022/10/31 07:22:37;;;;;;;1.30;1.10;;;;;;;;;;5068412;28;20471;-78
2022/10/31 07:25:07;;;;;;;0.70;0.70;;;;;;;;;;5068236;28;20460;-79
2022/10/31 07:27:53;;;;;;;0.60;0.60;;;;;;;;;;5078860;28;20514;-78
2022/10/31 07:30:20;;;;;;;1.87;1.77;;;;;;;;;;5077267;28;20456;-78
2022/10/31 07:32:52;;;;;;;1.23;1.13;;;;;;;;;;5055061;28;20461;-76
2022/10/31 07:35:21;;;;;;;0.60;0.60;;;;;;;;;;5068883;28;20866;-77
2022/10/31 07:37:57;;;;;;;16.90;2.07;;;;;;;;;;5058137;28;20439;-77
2022/10/31 07:40:24;;;;;;;1.50;1.40;;;;;;;;;;5068427;28;20958;-79
2022/10/31 07:42:57;;;;;;;1.17;1.10;;;;;;;;;;5052477;28;20484;-77
2022/10/31 07:45:56;;;;;;;0.97;0.97;;;;;;;;;;5064197;28;20447;-77
2022/10/31 07:48:44;;;;;;;0.60;0.60;;;;;;;;;;5041727;28;20971;-79
2022/10/31 07:51:46;;;;;;;0.67;0.60;;;;;;;;;;5045018;28;20455;-79
2022/10/31 07:54:33;;;;;;;1.47;1.37;;;;;;;;;;5065513;28;20452;-81
2022/10/31 07:57:02;;;;;;;0.70;0.70;;;;;;;;;;5047948;28;20451;-77
2022/10/31 07:59:32;;;;;;;0.70;0.70;;;;;;;;;;5077258;28;20440;-77
2022/10/31 08:02:01;;;;;;;0.83;0.83;;;;;;;;;;5075020;28;20987;-77
2022/10/31 08:04:32;;;;;;;0.70;0.67;;;;;;;;;;5088018;28;20776;-79
2022/10/31 08:07:17;;;;;;;0.70;0.60;;;;;;;;;;5089912;28;20461;-78
2022/10/31 08:09:52;;;;;;;1.80;1.33;;;;;;;;;;5067578;28;20811;-79
2022/10/31 08:12:22;;;;;;;0.70;0.70;;;;;;;;;;5067267;28;20466;-77
2022/10/31 08:14:52;;;;;;;1.13;1.07;;;;;;;;;;5049929;28;20534;-78
2022/10/31 08:17:22;;;;;;;1.00;1.00;;;;;;;;;;5069357;28;20442;-79
2022/10/31 08:19:55;;;;;;;0.67;0.67;;;;;;;;;;5074186;28;20548;-79
2022/10/31 08:22:33;;;;;;;0.70;0.70;;;;;;;;;;5069771;28;20499;-80
2022/10/31 08:25:05;;;;;;;2.60;2.40;;;;;;;;;;5050063;28;20544;-79
2022/10/31 08:27:32;;;;;;;0.70;0.70;;;;;;;;;;5051230;28;20846;-79
2022/10/31 08:30:00;;;;;;;0.70;0.67;;;;;;;;;;5059989;28;20489;-78
2022/10/31 08:32:27;;;;;;;0.97;0.90;;;;;;;;;;5070806;28;20527;-78
2022/10/31 08:35:14;;;;;;;0.80;0.80;;;;;;;;;;5080115;28;20449;-77
2022/10/31 08:38:14;;;;;;;0.90;0.90;;;;;;;;;;5071570;28;20452;-78
2022/10/31 08:40:41;;;;;;;1.00;0.90;;;;;;;;;;5063200;28;20466;-79
2022/10/31 08:43:10;;;;;;;0.80;0.80;;;;;;;;;;5082237;28;20469;-79
2022/10/31 08:45:38;;;;;;;0.97;0.90;;;;;;;;;;5071017;28;20487;-79
2022/10/31 08:48:11;;;;;;;0.70;0.70;;;;;;;;;;5061249;28;20449;-78
2022/10/31 08:50:40;;;;;;;0.70;0.60;;;;;;;;;;5093066;28;20468;-77
2022/10/31 08:53:09;;;;;;;0.80;0.80;;;;;;;;;;5042268;28;20449;-78
2022/10/31 08:55:40;;;;;;;0.90;0.87;;;;;;;;;;5057355;28;20459;-79
2022/10/31 08:58:22;;;;;;;0.70;0.70;;;;;;;;;;5065179;28;20889;-78
2022/10/31 09:00:53;;;;;;;0.70;0.70;;;;;;;;;;5050109;28;20536;-79
2022/10/31 09:03:21;;;;;;;0.70;0.70;;;;;;;;;;5047721;28;20561;-78
2022/10/31 09:05:54;;;;;;;1.40;1.30;;;;;;;;;;5083166;28;20545;-79
2022/10/31 09:08:21;;;;;;;1.37;1.27;;;;;;;;;;5044270;28;20960;-79
2022/10/31 09:10:50;;;;;;;1.00;1.00;;;;;;;;;;5061852;28;20496;-78
2022/10/31 09:13:28;;;;;;;0.70;0.60;;;;;;;;;;5071247;28;21139;-78
2022/10/31 09:16:33;;;;;;;0.70;0.63;;;;;;;;;;5046806;28;20480;-77
2022/10/31 09:19:00;;;;;;;0.70;0.60;;;;;;;;;;5055773;28;20473;-79
2022/10/31 09:21:28;;;;;;;1.17;1.07;;;;;;;;;;5068632;28;20530;-80
2022/10/31 09:23:57;;;;;;;3.17;1.77;;;;;;;;;;5061851;28;20493;-76
2022/10/31 09:26:25;;;;;;;0.73;0.70;;;;;;;;;;5079990;28;20440;-79
2022/10/31 09:28:58;;;;;;;0.77;0.77;;;;;;;;;;5064808;28;20449;-81
2022/10/31 09:31:27;;;;;;;0.70;0.70;;;;;;;;;;5065035;28;20481;-78
2022/10/31 09:34:01;;;;;;;1.07;1.00;;;;;;;;;;5065865;28;20528;-79
2022/10/31 09:36:37;;;;;;;0.70;0.70;;;;;;;;;;5068791;28;20463;-79
2022/10/31 09:39:09;;;;;;;0.70;0.70;;;;;;;;;;5085365;28;20432;-78
2022/10/31 09:41:54;;;;;;;0.80;0.70;;;;;;;;;;5069556;28;20459;-77
2022/10/31 09:44:29;;;;;;;0.70;0.70;;;;;;;;;;5060499;28;20477;-78
2022/10/31 09:46:59;;;;;;;0.80;0.70;;;;;;;;;;5072203;28;21020;-79
2022/10/31 09:49:47;;;;;;;0.80;0.80;;;;;;;;;;5054224;28;20450;-78
2022/10/31 09:52:20;;;;;;;0.80;0.70;;;;;;;;;;5050828;28;20458;-77
2022/10/31 09:54:51;;;;;;;1.30;1.20;;;;;;;;;;5068417;28;20950;-78
2022/10/31 09:57:23;;;;;;;2.20;1.83;;;;;;;;;;5066332;28;20438;-80
2022/10/31 09:59:51;;;;;;;0.70;0.70;;;;;;;;;;5067282;28;20414;-78
2022/10/31 10:02:24;;;;;;;1.20;1.10;;;;;;;;;;5067957;28;20970;-78
2022/10/31 10:04:53;;;;;;;1.53;1.43;;;;;;;;;;5053377;28;20445;-80
2022/10/31 10:07:26;;;;;;;1.10;0.77;;;;;;;;;;5072879;28;20477;-77
2022/10/31 10:10:12;;;;;;;1.30;1.20;;;;;;;;;;5080913;28;20469;-79
2022/10/31 10:13:11;;;;;;;0.70;0.60;;;;;;;;;;5066382;28;20754;-78
2022/10/31 10:15:48;;;;;;;2.73;2.53;;;;;;;;;;5101414;28;20425;-77
2022/10/31 10:18:22;;;;;;;0.73;0.70;;;;;;;;;;5055870;28;20421;-77
2022/10/31 10:20:56;;;;;;;1.83;1.73;;;;;;;;;;5077840;28;20444;-77
2022/10/31 10:23:39;;;;;;;0.80;0.70;;;;;;;;;;5088305;28;21005;-78
2022/10/31 10:26:13;;;;;;;0.80;0.80;;;;;;;;;;5037120;28;20425;-77
2022/10/31 10:28:43;;;;;;;1.00;0.90;;;;;;;;;;5069280;28;20503;-77
2022/10/31 10:31:14;;;;;;;0.77;0.70;;;;;;;;;;5095191;28;20438;-77
2022/10/31 10:33:46;;;;;;;0.70;0.70;;;;;;;;;;5070591;28;20971;-76
2022/10/31 10:36:16;;;;;;;1.67;1.57;;;;;;;;;;5074153;28;20561;-78
2022/10/31 10:38:53;;;;;;;0.77;0.67;;;;;;;;;;5045979;28;20448;-79
2022/10/31 10:41:20;;;;;;;0.80;0.80;;;;;;;;;;5061199;28;20424;-78
2022/10/31 10:43:48;;;;;;;0.77;0.70;;;;;;;;;;5076278;28;20466;-76
2022/10/31 10:49:09;;;;;;;0.90;0.90;;;;;;;;;;5071724;28;21034;-76
2022/10/31 10:51:39;;;;;;;0.90;0.90;;;;;;;;;;5071086;28;20570;-76
2022/10/31 10:54:50;;;;;;;1.07;0.80;;;;;;;;;;5078563;28;20453;-77
2022/10/31 10:57:22;;;;;;;0.70;0.70;;;;;;;;;;5045754;28;20437;-77
2022/10/31 10:59:50;;;;;;;1.20;1.10;;;;;;;;;;5051231;28;20431;-78
2022/10/31 11:02:18;;;;;;;0.80;0.80;;;;;;;;;;5082394;28;20440;-79
2022/10/31 11:04:47;;;;;;;0.77;0.67;;;;;;;;;;5077003;28;20512;-78
2022/10/31 11:07:13;;;;;;;0.80;0.80;;;;;;;;;;5047928;28;20467;-77
2022/10/31 11:09:40;;;;;;;1.10;1.00;;;;;;;;;;5066385;28;20505;-77
2022/10/31 11:12:08;;;;;;;0.70;0.67;;;;;;;;;;5068503;28;20478;-77
2022/10/31 11:14:43;;;;;;;0.80;0.70;;;;;;;;;;5068956;28;20437;-77
2022/10/31 11:17:17;;;;;;;1.30;0.90;;;;;;;;;;5086026;28;20500;-77
2022/10/31 11:19:43;;;;;;;0.70;0.70;;;;;;;;;;5058810;28;20450;-77
2022/10/31 11:22:14;;;;;;;6.07;1.30;;;;;;;;;;5051799;28;20558;-77
2022/10/31 11:24:41;;;;;;;0.70;0.63;;;;;;;;;;5070044;28;20888;-77
2022/10/31 11:27:12;;;;;;;1.13;1.03;;;;;;;;;;5055964;28;20421;-78
2022/10/31 11:29:40;;;;;;;0.80;0.73;;;;;;;;;;5056245;28;20455;-77
2022/10/31 11:32:14;;;;;;;0.77;0.70;;;;;;;;;;5094784;28;20461;-77
2022/10/31 11:34:45;;;;;;;0.90;0.90;;;;;;;;;;5076906;28;20409;-78
2022/10/31 11:37:13;;;;;;;0.90;0.80;;;;;;;;;;5071971;28;20487;-77
2022/10/31 11:39:41;;;;;;;0.70;0.70;;;;;;;;;;5073399;28;20432;-78
2022/10/31 11:42:10;;;;;;;5.80;1.83;;;;;;;;;;5054592;28;20422;-76
2022/10/31 11:44:41;;;;;;;0.70;0.60;;;;;;;;;;5086223;28;20467;-78
2022/10/31 11:47:13;;;;;;;0.87;0.80;;;;;;;;;;5078976;28;20427;-78
2022/10/31 11:49:40;;;;;;;0.80;0.80;;;;;;;;;;5087817;28;20538;-79
2022/10/31 11:52:12;;;;;;;1.27;1.17;;;;;;;;;;5092157;28;20497;-80
2022/10/31 11:54:42;;;;;;;0.80;0.77;;;;;;;;;;5070559;28;20435;-75
2022/10/31 11:57:34;;;;;;;0.80;0.80;;;;;;;;;;5071029;28;20457;-78
2022/10/31 12:00:05;;;;;;;0.77;0.70;;;;;;;;;;5058864;28;20453;-78
2022/10/31 12:02:39;;;;;;;0.80;0.80;;;;;;;;;;5076619;28;20422;-78
2022/10/31 12:05:07;;;;;;;0.70;0.70;;;;;;;;;;5064889;28;20894;-78
2022/10/31 12:07:34;;;;;;;1.17;1.07;;;;;;;;;;5072516;28;20821;-77
2022/10/31 12:10:11;;;;;;;0.80;0.70;;;;;;;;;;5050084;28;20430;-77
2022/10/31 12:12:53;;;;;;;0.83;0.80;;;;;;;;;;5081678;28;20439;-76
2022/10/31 12:15:27;;;;;;;1.07;0.97;;;;;;;;;;5054290;28;20438;-76
2022/10/31 12:18:02;;;;;;;0.80;0.70;;;;;;;;;;5074844;28;20764;-75
2022/10/31 12:20:33;;;;;;;0.70;0.60;;;;;;;;;;5075575;28;20457;-77
2022/10/31 12:23:02;;;;;;;0.70;0.60;;;;;;;;;;5069275;28;20470;-78
2022/10/31 12:25:35;;;;;;;0.80;0.80;;;;;;;;;;5055639;28;20825;-78
2022/10/31 12:28:14;;;;;;;1.03;1.00;;;;;;;;;;5070094;28;20431;-80
2022/10/31 12:30:49;;;;;;;1.10;1.00;;;;;;;;;;5089376;28;20432;-79
2022/10/31 12:33:27;;;;;;;1.70;0.80;;;;;;;;;;5069869;28;20482;-76
2022/10/31 12:35:59;;;;;;;0.70;0.60;;;;;;;;;;5072947;28;20977;-76
2022/10/31 12:38:31;;;;;;;0.80;0.73;;;;;;;;;;5071330;28;20479;-78
2022/10/31 12:41:08;;;;;;;0.70;0.70;;;;;;;;;;5088485;28;20410;-79
2022/10/31 12:43:40;;;;;;;0.90;0.90;;;;;;;;;;5071861;28;20461;-77
2022/10/31 12:46:11;;;;;;;2.20;1.23;;;;;;;;;;5065930;28;21296;-77
2022/10/31 12:48:55;;;;;;;0.80;0.70;;;;;;;;;;5070990;28;20495;-77
2022/10/31 12:51:29;;;;;;;0.70;0.60;;;;;;;;;;5069722;28;20466;-77
2022/10/31 12:54:02;;;;;;;0.70;0.60;;;;;;;;;;5086954;28;20841;-76
2022/10/31 12:56:35;;;;;;;0.70;0.60;;;;;;;;;;5076202;28;20454;-77
2022/10/31 12:59:06;;;;;;;1.00;0.90;;;;;;;;;;5087284;28;20464;-77
2022/10/31 13:01:34;;;;;;;1.10;0.80;;;;;;;;;;5070474;28;20457;-78
2022/10/31 13:04:03;;;;;;;0.70;0.70;;;;;;;;;;5069186;28;20485;-78
2022/10/31 13:06:33;;;;;;;0.70;0.70;;;;;;;;;;5051865;28;21078;-81
2022/10/31 13:09:01;;;;;;;1.00;0.97;;;;;;;;;;5064723;28;20519;-79
2022/10/31 13:11:31;;;;;;;0.70;0.60;;;;;;;;;;5074542;28;20428;-79
2022/10/31 13:14:01;;;;;;;1.23;0.90;;;;;;;;;;5080867;28;20423;-80
2022/10/31 13:16:31;;;;;;;1.30;1.20;;;;;;;;;;5068717;28;20408;-78
2022/10/31 13:19:00;;;;;;;0.80;0.80;;;;;;;;;;5060667;28;20447;-79
2022/10/31 13:21:28;;;;;;;0.70;0.70;;;;;;;;;;5047508;28;20469;-79
2022/10/31 13:23:58;;;;;;;0.70;0.70;;;;;;;;;;5089472;28;20433;-80
2022/10/31 13:26:33;;;;;;;1.13;0.93;;;;;;;;;;5067410;28;20922;-81
2022/10/31 13:29:03;;;;;;;0.80;0.80;;;;;;;;;;5048975;28;20471;-79
2022/10/31 13:31:30;;;;;;;0.70;0.67;;;;;;;;;;5069058;28;20545;-78
2022/10/31 13:34:00;;;;;;;1.53;1.20;;;;;;;;;;5065256;28;20495;-78
2022/10/31 13:36:32;;;;;;;0.80;0.70;;;;;;;;;;5052434;28;20466;-80
2022/10/31 13:39:03;;;;;;;0.70;0.70;;;;;;;;;;5045077;28;20625;-79
2022/10/31 13:41:34;;;;;;;0.70;0.60;;;;;;;;;;5065255;28;20436;-79
2022/10/31 13:44:03;;;;;;;0.70;0.63;;;;;;;;;;5055751;28;20555;-79
2022/10/31 13:46:37;;;;;;;0.70;0.70;;;;;;;;;;5050797;28;20446;-82
2022/10/31 13:49:21;;;;;;;0.70;0.60;;;;;;;;;;5070538;28;20503;-81
2022/10/31 13:51:52;;;;;;;0.80;0.70;;;;;;;;;;5088587;28;20464;-79
2022/10/31 13:54:22;;;;;;;1.13;0.90;;;;;;;;;;5069709;28;20446;-81
2022/10/31 13:56:50;;;;;;;1.07;0.97;;;;;;;;;;5073904;28;20545;-79
2022/10/31 13:59:19;;;;;;;0.80;0.70;;;;;;;;;;5091755;28;20484;-79
2022/10/31 14:01:53;;;;;;;1.10;1.00;;;;;;;;;;5070046;28;20448;-79
2022/10/31 14:04:20;;;;;;;0.70;0.60;;;;;;;;;;5067874;28;20546;-78
2022/10/31 14:06:54;;;;;;;0.80;0.80;;;;;;;;;;5068111;28;20464;-80
2022/10/31 14:09:28;;;;;;;0.80;0.80;;;;;;;;;;5060580;28;20428;-81
2022/10/31 14:11:55;;;;;;;1.57;1.03;;;;;;;;;;5069461;28;20422;-80
2022/10/31 14:14:23;;;;;;;0.80;0.80;;;;;;;;;;5059888;28;20441;-78
2022/10/31 14:16:54;;;;;;;0.80;0.70;;;;;;;;;;5088582;28;20405;-81
2022/10/31 14:19:22;;;;;;;0.70;0.60;;;;;;;;;;5082751;28;20487;-83
2022/10/31 14:21:50;;;;;;;0.70;0.70;;;;;;;;;;5079698;28;21002;-82
2022/10/31 14:24:32;;;;;;;0.70;0.63;;;;;;;;;;5067019;28;20499;-79
2022/10/31 14:27:00;;;;;;;2.07;1.13;;;;;;;;;;5087793;28;20443;-82
2022/10/31 14:29:28;;;;;;;1.17;0.83;;;;;;;;;;5052459;28;20812;-81
2022/10/31 14:31:56;;;;;;;0.70;0.70;;;;;;;;;;5061908;28;20405;-81
2022/10/31 14:34:25;;;;;;;0.80;0.70;;;;;;;;;;5067468;28;20482;-80
2022/10/31 14:37:17;;;;;;;0.70;0.60;;;;;;;;;;5058488;28;20532;-81
2022/10/31 14:39:50;;;;;;;0.80;0.73;;;;;;;;;;5082628;28;20487;-81
2022/10/31 14:42:29;;;;;;;0.80;0.73;;;;;;;;;;5050877;28;20443;-81
2022/10/31 14:45:06;;;;;;;0.80;0.73;;;;;;;;;;5073710;28;20569;-79
2022/10/31 14:47:40;;;;;;;1.03;0.87;;;;;;;;;;5045947;28;20431;-79
2022/10/31 14:50:20;;;;;;;0.70;0.70;;;;;;;;;;5056612;28;20952;-79
2022/10/31 14:52:54;;;;;;;1.50;1.40;;;;;;;;;;5051976;28;20935;-80
2022/10/31 14:55:24;;;;;;;0.70;0.70;;;;;;;;;;5070987;28;20809;-80
2022/10/31 14:57:54;;;;;;;0.80;0.80;;;;;;;;;;5073161;28;20430;-79
2022/10/31 15:00:21;;;;;;;0.70;0.60;;;;;;;;;;5087333;28;20438;-79
2022/10/31 15:02:52;;;;;;;1.00;0.83;;;;;;;;;;5053551;28;20495;-78
2022/10/31 15:05:19;;;;;;;0.70;0.60;;;;;;;;;;5077346;28;20531;-78
2022/10/31 15:07:48;;;;;;;1.13;1.03;;;;;;;;;;5068465;28;20438;-79
2022/10/31 15:10:19;;;;;;;1.03;0.93;;;;;;;;;;5051959;28;20524;-79
2022/10/31 15:12:48;;;;;;;0.90;0.83;;;;;;;;;;5039833;28;20498;-78
2022/10/31 15:15:18;;;;;;;1.87;1.60;;;;;;;;;;5069403;28;20426;-80
2022/10/31 15:17:50;;;;;;;0.70;0.60;;;;;;;;;;5066268;28;20559;-79